Terminal Aerodrome Forecast
Issued by NWS

Home | Current Version | Previous Version | Text Only | Print | Product List | Glossary On
Versions: 1 2 3 4 5 6 7 8 9 10 11 12 13 14 15 16
000
FTUS45 KPSR 291100
TAFIPL
TAF
KIPL 291125Z 2912/3012 VRB03KT P6SM FEW250
     FM291600 28009KT P6SM FEW250
      TEMPO 3001/3005 27010G16KT=

USA.gov is the U.S. government's official web portal to all federal, state and local government web resources and services.